Time;durP1;ratioP1;P1;durP2;ratioP2;P2;SDS_P1;SDS_P2;PMS_P1;PMS_P2;Temp;Humidity;BMP_temperature;BMP_pressure;BME280_temperature;BME280_humidity;BME280_pressure;Samples;Min_cycle;Max_cycle;Signal;HPM_P1;HPM_P2
2023/07/11 00:00:17;;;;;;;4.75;3.95;;;;;;;22.20;87.20;99309.63;4952541;29;20198;-76
2023/07/11 00:02:46;;;;;;;6.28;4.38;;;;;;;22.23;87.27;99319.69;4952715;29;20239;-76
2023/07/11 00:05:14;;;;;;;6.70;4.53;;;;;;;22.22;87.05;99315.44;4952074;29;20616;-76
2023/07/11 00:07:42;;;;;;;7.45;4.45;;;;;;;22.26;87.58;99318.50;4950113;29;20199;-76
2023/07/11 00:10:12;;;;;;;7.97;4.63;;;;;;;22.21;87.49;99319.03;4933524;29;20211;-75
2023/07/11 00:12:39;;;;;;;5.90;4.10;;;;;;;22.18;87.79;99316.78;4937054;29;20210;-76
2023/07/11 00:15:08;;;;;;;6.63;4.40;;;;;;;22.20;87.81;99314.03;4950482;29;20221;-74
2023/07/11 00:17:35;;;;;;;6.28;4.38;;;;;;;22.21;87.50;99311.22;4952514;29;20210;-75
2023/07/11 00:20:05;;;;;;;6.13;4.28;;;;;;;22.18;87.35;99311.59;4952146;29;20198;-76
2023/07/11 00:22:33;;;;;;;5.67;4.17;;;;;;;22.17;87.48;99320.41;4952332;29;20203;-75
2023/07/11 00:25:00;;;;;;;6.30;4.50;;;;;;;22.16;87.77;99310.91;4950775;29;20207;-76
2023/07/11 00:27:27;;;;;;;5.40;4.23;;;;;;;22.21;87.64;99315.63;4934249;29;20689;-75
2023/07/11 00:29:54;;;;;;;5.57;4.20;;;;;;;22.19;87.45;99313.19;4936239;28;20204;-75
2023/07/11 00:32:20;;;;;;;6.45;4.43;;;;;;;22.19;87.19;99315.78;4933235;29;20206;-76
2023/07/11 00:34:47;;;;;;;6.40;4.20;;;;;;;22.20;87.49;99309.63;4933407;29;20654;-75
2023/07/11 00:37:15;;;;;;;6.50;4.50;;;;;;;22.25;87.60;99307.28;4932960;29;20666;-75
2023/07/11 00:39:43;;;;;;;5.33;4.10;;;;;;;22.24;87.50;99300.44;4932863;29;20199;-75
2023/07/11 00:42:11;;;;;;;7.40;4.43;;;;;;;22.26;87.94;99297.66;4932793;29;20593;-75
2023/07/11 00:44:52;;;;;;;7.22;4.28;;;;;;;22.29;88.18;99298.13;4935640;29;20233;-75
2023/07/11 00:47:19;;;;;;;5.93;4.45;;;;;;;22.26;86.88;99303.69;4951857;29;20246;-76
2023/07/11 00:49:48;;;;;;;6.38;4.55;;;;;;;22.30;86.97;99299.72;4941229;29;20685;-76
2023/07/11 00:52:18;;;;;;;5.57;4.05;;;;;;;22.31;87.46;99300.53;4932697;29;20211;-75
2023/07/11 00:54:49;;;;;;;7.70;4.33;;;;;;;22.29;87.15;99298.13;4949875;29;20214;-75
2023/07/11 00:57:18;;;;;;;5.18;4.00;;;;;;;22.31;86.73;99297.91;4951171;28;20221;-76
2023/07/11 00:59:45;;;;;;;6.37;4.13;;;;;;;22.29;86.26;99303.31;4951510;29;20207;-76
2023/07/11 01:02:16;;;;;;;5.32;4.13;;;;;;;22.32;86.42;99297.75;4949887;29;20207;-75
2023/07/11 01:04:44;;;;;;;5.53;3.85;;;;;;;22.33;86.47;99296.75;4951388;29;20210;-76
2023/07/11 01:07:13;;;;;;;6.45;4.45;;;;;;;22.36;86.28;99287.75;4951213;29;20235;-75
2023/07/11 01:09:42;;;;;;;5.35;4.03;;;;;;;22.34;86.31;99287.97;4949970;29;20233;-76
2023/07/11 01:12:12;;;;;;;6.07;4.25;;;;;;;22.41;86.68;99295.03;4951824;29;20210;-75
2023/07/11 01:14:40;;;;;;;6.97;3.97;;;;;;;22.40;87.29;99283.81;4951470;29;20207;-76
2023/07/11 01:17:28;;;;;;;6.13;4.20;;;;;;;22.41;86.93;99279.41;4951676;28;20211;-76
2023/07/11 01:19:55;;;;;;;5.50;3.95;;;;;;;22.47;86.47;99283.91;4939815;29;20211;-76
2023/07/11 01:22:25;;;;;;;9.68;4.28;;;;;;;22.44;86.05;99289.47;4931990;29;20237;-76
2023/07/11 01:24:52;;;;;;;7.88;4.10;;;;;;;22.48;85.97;99275.88;4931718;29;20649;-76
2023/07/11 01:27:20;;;;;;;5.22;3.97;;;;;;;22.53;86.20;99283.16;4931702;29;20251;-75
2023/07/11 01:29:48;;;;;;;6.18;3.97;;;;;;;22.55;86.63;99281.19;4934292;29;20203;-76
2023/07/11 01:32:15;;;;;;;6.25;4.18;;;;;;;22.49;86.25;99282.72;4950952;29;20202;-76
2023/07/11 01:34:42;;;;;;;8.23;4.35;;;;;;;22.47;86.63;99283.91;4950781;29;20235;-75
2023/07/11 01:37:09;;;;;;;5.82;4.10;;;;;;;22.49;86.32;99271.50;4944572;28;20270;-75
2023/07/11 01:39:37;;;;;;;5.57;3.88;;;;;;;22.38;86.63;99265.75;4931941;29;20239;-75
2023/07/11 01:42:05;;;;;;;7.20;4.60;;;;;;;22.35;86.55;99268.72;4930905;29;20208;-75
2023/07/11 01:44:32;;;;;;;6.68;4.50;;;;;;;22.35;86.31;99276.53;4931630;29;20713;-75
2023/07/11 01:47:01;;;;;;;6.43;4.22;;;;;;;22.35;86.62;99260.09;4931451;29;20242;-75
2023/07/11 01:49:28;;;;;;;6.10;3.90;;;;;;;22.28;86.67;99264.41;4931573;29;20207;-76
2023/07/11 01:52:04;;;;;;;8.63;4.65;;;;;;;22.26;86.87;99261.22;4947191;29;20207;-76
2023/07/11 01:54:31;;;;;;;5.95;4.30;;;;;;;22.25;86.46;99270.00;4949767;29;20273;-76
2023/07/11 01:57:00;;;;;;;5.45;4.00;;;;;;;22.22;86.93;99271.16;4949809;29;20712;-76
2023/07/11 01:59:27;;;;;;;9.63;4.30;;;;;;;22.25;87.03;99265.63;4950623;29;20237;-76
2023/07/11 02:01:54;;;;;;;8.20;4.40;;;;;;;22.22;86.24;99265.94;4950432;29;20217;-75
2023/07/11 02:04:22;;;;;;;6.88;4.22;;;;;;;22.19;86.35;99263.72;4950316;29;20611;-76
2023/07/11 02:06:49;;;;;;;7.97;4.47;;;;;;;22.19;86.53;99268.91;4950104;28;20289;-76
2023/07/11 02:09:17;;;;;;;5.57;4.05;;;;;;;22.25;86.61;99270.81;4949638;28;20242;-76
2023/07/11 02:11:44;;;;;;;4.82;4.10;;;;;;;22.20;86.15;99267.94;4946325;29;20202;-75
2023/07/11 02:14:14;;;;;;;5.03;3.90;;;;;;;22.20;86.67;99275.75;4942944;28;20210;-75
2023/07/11 02:16:44;;;;;;;10.40;4.35;;;;;;;22.21;86.96;99266.16;4950153;28;20593;-76
2023/07/11 02:19:11;;;;;;;8.32;4.25;;;;;;;22.21;86.91;99269.56;4950368;28;20824;-76
2023/07/11 02:21:38;;;;;;;5.78;4.22;;;;;;;22.28;86.73;99269.63;4949361;29;20218;-76
2023/07/11 02:24:06;;;;;;;6.10;3.78;;;;;;;22.33;86.85;99262.88;4950549;29;20203;-76
2023/07/11 02:26:32;;;;;;;5.07;3.97;;;;;;;22.37;87.00;99263.34;4949769;29;20241;-75
2023/07/11 02:28:59;;;;;;;6.43;4.20;;;;;;;22.43;86.98;99274.81;4950260;28;20210;-75
2023/07/11 02:31:28;;;;;;;6.15;3.75;;;;;;;22.40;87.14;99267.34;4944371;28;20214;-75
2023/07/11 02:33:56;;;;;;;5.25;4.00;;;;;;;22.46;86.98;99259.63;4930929;29;20206;-75
2023/07/11 02:36:23;;;;;;;5.55;4.22;;;;;;;22.51;87.84;99243.44;4931001;29;20636;-76
2023/07/11 02:38:49;;;;;;;6.30;4.50;;;;;;;22.35;87.30;99253.09;4930815;29;20199;-75
2023/07/11 02:41:16;;;;;;;7.45;4.30;;;;;;;22.19;88.00;99252.50;4930873;29;20285;-76
2023/07/11 02:43:43;;;;;;;4.88;3.92;;;;;;;22.11;88.02;99253.38;4930652;29;20303;-75
2023/07/11 02:46:10;;;;;;;7.03;4.32;;;;;;;22.11;88.70;99255.97;4930664;29;20646;-75
2023/07/11 02:48:38;;;;;;;6.68;4.20;;;;;;;22.05;88.61;99259.28;4935044;29;20221;-75
2023/07/11 02:51:05;;;;;;;9.63;4.50;;;;;;;21.91;87.77;99248.72;4943952;28;20743;-76
2023/07/11 02:53:32;;;;;;;7.95;4.32;;;;;;;21.80;87.16;99245.75;4947350;28;20603;-75
2023/07/11 02:55:59;;;;;;;5.10;3.80;;;;;;;21.74;87.65;99251.69;4949745;29;20211;-76
2023/07/11 02:58:26;;;;;;;7.87;4.03;;;;;;;21.74;87.15;99247.28;4950441;29;20206;-76
2023/07/11 03:00:56;;;;;;;7.47;4.30;;;;;;;21.73;86.87;99256.09;4951012;29;20202;-77
2023/07/11 03:03:23;;;;;;;8.70;4.00;;;;;;;21.71;87.02;99263.25;4951417;29;20592;-70
2023/07/11 03:05:52;;;;;;;8.70;4.37;;;;;;;21.69;87.88;99254.81;4947801;29;20208;-70
2023/07/11 03:08:19;;;;;;;5.83;3.83;;;;;;;21.69;86.92;99258.22;4945410;29;20209;-70
2023/07/11 03:10:46;;;;;;;7.13;4.17;;;;;;;21.69;87.81;99262.59;4949392;29;20211;-70
2023/07/11 03:13:14;;;;;;;4.70;3.93;;;;;;;21.68;87.20;99268.81;4943302;29;20206;-70
2023/07/11 03:15:41;;;;;;;6.83;4.50;;;;;;;21.72;87.74;99262.25;4930418;29;20214;-70
2023/07/11 03:18:08;;;;;;;8.53;4.13;;;;;;;21.69;87.60;99265.22;4930327;29;20299;-71
2023/07/11 03:20:37;;;;;;;7.17;4.00;;;;;;;21.73;87.65;99255.25;4931843;29;20199;-70
2023/07/11 03:23:05;;;;;;;5.93;4.10;;;;;;;21.76;87.72;99260.94;4933748;29;20230;-70
2023/07/11 03:25:32;;;;;;;5.33;3.77;;;;;;;21.75;87.88;99259.28;4939650;29;20216;-70
2023/07/11 03:27:59;;;;;;;6.03;3.80;;;;;;;21.81;87.12;99250.75;4953210;29;20723;-71
2023/07/11 03:30:26;;;;;;;5.47;4.13;;;;;;;21.80;87.60;99253.56;4953129;29;20210;-70
2023/07/11 03:32:52;;;;;;;6.20;3.83;;;;;;;21.80;87.43;99263.97;4951761;29;20205;-71
2023/07/11 03:35:19;;;;;;;5.87;4.07;;;;;;;21.76;87.88;99258.31;4935414;29;20581;-70
2023/07/11 03:37:46;;;;;;;5.67;4.33;;;;;;;21.77;87.93;99257.31;4933942;29;20213;-70
2023/07/11 03:40:15;;;;;;;7.60;4.50;;;;;;;21.77;87.99;99251.31;4933955;29;20215;-70
2023/07/11 03:42:42;;;;;;;4.97;3.97;;;;;;;21.76;88.73;99257.50;4938153;29;20215;-70
2023/07/11 03:45:09;;;;;;;7.37;4.20;;;;;;;21.89;88.82;99260.28;4934217;29;20205;-70
2023/07/11 03:47:36;;;;;;;6.93;4.33;;;;;;;21.96;88.28;99260.38;4933806;29;20728;-70
2023/07/11 03:50:03;;;;;;;5.60;4.03;;;;;;;21.93;88.17;99272.78;4933817;29;20203;-71
2023/07/11 03:52:30;;;;;;;5.50;4.10;;;;;;;21.90;89.33;99260.13;4933417;29;20207;-70
2023/07/11 03:54:57;;;;;;;5.70;4.37;;;;;;;21.91;88.69;99264.34;4955321;28;20558;-70
2023/07/11 03:57:25;;;;;;;6.40;4.60;;;;;;;21.89;88.43;99266.31;4952785;29;20210;-70
2023/07/11 03:59:52;;;;;;;5.07;4.40;;;;;;;21.86;87.86;99265.84;4960390;28;20207;-70
2023/07/11 04:02:19;;;;;;;6.13;4.30;;;;;;;21.89;87.08;99268.09;4953337;28;20211;-70
2023/07/11 04:04:46;;;;;;;5.03;4.17;;;;;;;21.93;87.34;99262.38;4951821;29;20206;-70
2023/07/11 04:07:12;;;;;;;6.30;4.07;;;;;;;21.93;88.39;99267.56;4952596;29;20766;-70
2023/07/11 04:09:40;;;;;;;7.50;4.35;;;;;;;21.96;88.91;99270.78;4952852;29;20201;-70
2023/07/11 04:12:08;;;;;;;8.98;4.43;;;;;;;22.02;88.68;99270.06;4952324;29;20671;-71
2023/07/11 04:14:37;;;;;;;5.85;4.13;;;;;;;22.01;88.18;99264.06;4952464;29;20206;-71
2023/07/11 04:17:04;;;;;;;6.63;4.53;;;;;;;22.07;88.27;99262.53;4951518;28;20203;-70
2023/07/11 04:19:31;;;;;;;7.40;4.50;;;;;;;22.15;89.00;99270.25;4968071;28;20206;-71
2023/07/11 04:21:58;;;;;;;9.57;4.63;;;;;;;22.13;88.48;99261.81;4960591;28;20755;-70
2023/07/11 04:24:24;;;;;;;8.07;4.83;;;;;;;22.15;89.20;99259.84;4950960;29;20206;-70
2023/07/11 04:26:51;;;;;;;6.18;4.47;;;;;;;22.28;89.19;99265.25;4951779;29;20246;-71
2023/07/11 04:29:18;;;;;;;6.30;4.40;;;;;;;22.35;88.52;99260.91;4965611;28;20217;-71
2023/07/11 04:31:46;;;;;;;7.68;4.50;;;;;;;22.43;88.25;99267.81;4970470;28;20586;-70
2023/07/11 04:34:13;;;;;;;7.32;4.65;;;;;;;22.56;87.05;99272.38;4971597;28;20205;-70
2023/07/11 04:36:40;;;;;;;8.48;5.10;;;;;;;22.64;87.26;99271.47;4969776;28;20209;-70
2023/07/11 04:39:07;;;;;;;7.20;4.35;;;;;;;22.70;87.82;99273.31;4971133;28;20691;-71
2023/07/11 04:41:34;;;;;;;5.75;4.50;;;;;;;22.71;87.45;99278.34;4967801;28;20766;-70
2023/07/11 04:44:00;;;;;;;6.38;4.25;;;;;;;22.73;86.90;99272.97;4952096;29;20218;-71
2023/07/11 04:46:27;;;;;;;7.35;4.43;;;;;;;22.78;87.33;99284.44;4952002;29;20214;-70
2023/07/11 04:48:55;;;;;;;6.93;4.47;;;;;;;22.89;86.84;99279.72;4952073;29;20206;-71
2023/07/11 04:51:22;;;;;;;6.30;4.80;;;;;;;22.97;86.52;99279.63;4955722;28;20205;-71
2023/07/11 04:53:49;;;;;;;5.93;4.70;;;;;;;23.08;86.27;99271.31;4942061;29;20212;-71
2023/07/11 04:56:16;;;;;;;5.85;4.22;;;;;;;23.23;85.39;99269.44;4932611;29;20211;-71
2023/07/11 04:58:43;;;;;;;7.93;4.68;;;;;;;23.47;85.34;99275.22;4932485;29;20218;-71
2023/07/11 05:01:12;;;;;;;7.65;4.88;;;;;;;23.58;84.56;99277.31;4954996;28;20209;-71
2023/07/11 05:03:39;;;;;;;8.10;4.68;;;;;;;23.59;83.21;99288.56;4936378;28;20703;-71
2023/07/11 05:06:09;;;;;;;6.15;4.65;;;;;;;23.63;84.49;99284.59;4932559;29;20223;-71
2023/07/11 05:08:36;;;;;;;7.70;4.70;;;;;;;23.64;84.18;99275.75;4932832;29;20860;-71
2023/07/11 05:11:05;;;;;;;7.55;4.80;;;;;;;23.63;83.79;99280.19;4950835;29;20199;-71
2023/07/11 05:13:33;;;;;;;6.13;4.15;;;;;;;23.64;83.50;99276.56;4951472;29;20211;-70
2023/07/11 05:16:00;;;;;;;5.32;4.20;;;;;;;23.66;82.09;99285.03;4949834;28;20364;-71
2023/07/11 05:18:27;;;;;;;6.03;4.40;;;;;;;23.75;83.18;99279.69;4951340;29;20808;-70
2023/07/11 05:20:55;;;;;;;6.90;4.50;;;;;;;23.84;83.14;99281.16;4950752;29;20603;-71
2023/07/11 05:23:24;;;;;;;7.60;4.57;;;;;;;23.88;83.54;99277.13;4950877;29;20297;-71
2023/07/11 05:25:54;;;;;;;5.25;4.00;;;;;;;23.97;83.05;99268.16;4949443;29;20206;-71
2023/07/11 05:28:21;;;;;;;6.65;4.72;;;;;;;24.04;82.85;99276.84;4950190;29;20681;-71
2023/07/11 05:30:48;;;;;;;6.28;4.40;;;;;;;24.03;80.07;99285.69;4946010;29;20203;-71
2023/07/11 05:33:15;;;;;;;6.30;4.30;;;;;;;24.03;80.18;99279.63;4950490;29;20623;-72
2023/07/11 05:36:31;;;;;;;6.88;4.30;;;;;;;24.08;80.78;99285.88;4949620;29;20632;-72
2023/07/11 05:39:00;;;;;;;7.80;5.07;;;;;;;24.18;81.08;99283.75;4935596;29;20451;-70
2023/07/11 05:41:27;;;;;;;5.60;4.40;;;;;;;24.23;79.67;99282.34;4931953;29;20588;-72
2023/07/11 05:43:55;;;;;;;6.07;4.47;;;;;;;24.28;80.81;99283.38;4935894;29;20218;-71
2023/07/11 05:46:22;;;;;;;14.68;8.52;;;;;;;24.36;79.44;99285.03;4947535;29;20244;-71
2023/07/11 05:48:49;;;;;;;17.98;10.90;;;;;;;24.44;80.74;99295.34;4950069;29;20226;-72
2023/07/11 05:51:17;;;;;;;16.52;8.88;;;;;;;24.48;76.75;99283.47;4950546;29;20223;-72
2023/07/11 05:53:45;;;;;;;10.70;7.43;;;;;;;24.47;74.97;99286.31;4949638;28;20294;-75
2023/07/11 05:56:13;;;;;;;24.33;14.80;;;;;;;24.62;77.00;99289.56;4949244;29;20213;-74
2023/07/11 05:58:43;;;;;;;6.68;5.20;;;;;;;24.88;80.10;99299.28;4948329;29;20199;-72
2023/07/11 06:01:11;;;;;;;10.05;6.40;;;;;;;25.12;76.08;99299.72;4947421;29;20206;-70
2023/07/11 06:03:40;;;;;;;9.07;6.28;;;;;;;25.39;77.58;99296.13;4949767;29;20711;-71
2023/07/11 06:06:09;;;;;;;7.97;5.95;;;;;;;25.60;74.48;99291.66;4946817;29;20611;-70
2023/07/11 06:08:36;;;;;;;8.30;6.03;;;;;;;25.84;75.19;99291.06;4948753;29;20262;-72
2023/07/11 06:11:05;;;;;;;11.23;7.40;;;;;;;25.94;71.94;99295.88;4946738;29;20206;-73
2023/07/11 06:13:35;;;;;;;8.93;5.20;;;;;;;25.96;71.31;99292.03;4948100;29;20693;-72
2023/07/11 06:16:05;;;;;;;16.02;7.57;;;;;;;26.19;73.98;99296.03;4945820;29;20207;-71
2023/07/11 06:18:35;;;;;;;17.90;8.85;;;;;;;26.33;74.62;99292.34;4949165;29;20210;-71
2023/07/11 06:21:02;;;;;;;12.48;7.43;;;;;;;26.48;69.08;99297.31;4947899;29;20652;-73
2023/07/11 06:23:29;;;;;;;14.57;6.47;;;;;;;26.59;67.61;99295.88;4949250;29;20546;-72
2023/07/11 06:25:55;;;;;;;15.50;6.22;;;;;;;26.74;69.21;99296.41;4949624;26;20628;-72
2023/07/11 06:28:23;;;;;;;19.20;8.38;;;;;;;26.92;72.40;99297.50;4948893;29;20238;-72
2023/07/11 06:30:52;;;;;;;10.13;6.45;;;;;;;27.06;67.84;99301.66;4948779;29;20198;-72
2023/07/11 06:33:19;;;;;;;10.20;4.97;;;;;;;27.15;66.91;99289.91;4949620;29;20206;-72
2023/07/11 06:35:49;;;;;;;7.43;4.63;;;;;;;27.16;64.55;99286.25;4949042;29;20728;-72
2023/07/11 06:38:16;;;;;;;9.02;4.97;;;;;;;27.14;65.82;99285.66;4946144;29;20297;-69
2023/07/11 06:40:48;;;;;;;8.50;5.00;;;;;;;27.31;65.09;99281.50;4949130;29;20209;-70
2023/07/11 06:43:15;;;;;;;10.27;4.97;;;;;;;27.48;66.45;99286.19;4949074;29;20221;-72
2023/07/11 06:45:42;;;;;;;8.50;5.38;;;;;;;27.59;66.68;99282.84;4949102;29;20703;-72
2023/07/11 06:48:10;;;;;;;11.73;5.28;;;;;;;27.70;63.24;99284.78;4949295;29;20240;-72
2023/07/11 06:50:37;;;;;;;9.40;4.97;;;;;;;27.88;63.68;99277.94;4949452;29;20583;-72
2023/07/11 06:53:03;;;;;;;10.75;4.90;;;;;;;27.94;61.55;99287.59;4948761;28;20225;-72
2023/07/11 06:55:30;;;;;;;12.95;5.63;;;;;;;28.09;65.24;99280.13;4944435;29;20206;-73
2023/07/11 06:57:57;;;;;;;12.85;5.18;;;;;;;28.25;61.17;99277.94;4947789;29;20203;-72
2023/07/11 07:00:26;;;;;;;11.68;4.93;;;;;;;28.34;60.65;99276.63;4948439;29;20214;-72
2023/07/11 07:02:53;;;;;;;12.57;5.05;;;;;;;28.53;58.97;99270.28;4948434;29;20907;-72
2023/07/11 07:05:21;;;;;;;30.88;14.68;;;;;;;28.66;56.85;99275.38;4947572;29;20199;-72
2023/07/11 07:07:48;;;;;;;21.80;9.02;;;;;;;28.69;57.21;99278.59;4946139;29;20674;-72
2023/07/11 07:10:15;;;;;;;24.85;11.65;;;;;;;28.72;55.03;99278.16;4946581;29;20199;-72
2023/07/11 07:12:41;;;;;;;12.07;5.38;;;;;;;28.93;54.19;99272.38;4948077;29;20214;-72
2023/07/11 07:15:09;;;;;;;17.02;6.13;;;;;;;29.00;52.49;99280.16;4949256;28;20195;-72
2023/07/11 07:17:36;;;;;;;11.02;4.97;;;;;;;29.26;52.85;99278.94;4946370;29;20206;-72
2023/07/11 07:20:03;;;;;;;14.85;5.25;;;;;;;29.46;53.29;99278.63;4946959;29;20199;-72
2023/07/11 08:23:21;;;;;;;11.93;5.18;;;;;;;32.02;49.89;99273.34;5080928;27;20593;-75
2023/07/11 08:25:52;;;;;;;11.80;5.57;;;;;;;32.04;48.84;99276.56;5080330;28;20206;-73
2023/07/11 08:28:19;;;;;;;10.13;5.30;;;;;;;32.06;47.84;99273.66;5064276;28;20207;-73
2023/07/11 08:30:46;;;;;;;9.45;5.10;;;;;;;31.93;47.18;99280.94;5069775;28;20198;-74
2023/07/11 08:33:13;;;;;;;9.27;5.20;;;;;;;31.83;46.51;99280.00;5084514;28;20499;-73
2023/07/11 08:35:40;;;;;;;10.15;5.45;;;;;;;31.77;48.46;99276.47;5083847;28;20202;-73
2023/07/11 08:38:11;;;;;;;10.15;5.10;;;;;;;31.91;49.27;99267.16;5084906;28;20198;-75
2023/07/11 08:40:43;;;;;;;8.50;5.13;;;;;;;32.01;47.68;99266.47;5084772;28;20449;-73
2023/07/11 08:43:14;;;;;;;8.88;5.22;;;;;;;32.11;49.35;99271.09;5084846;28;20290;-73
2023/07/11 08:45:49;;;;;;;9.60;4.90;;;;;;;32.12;46.77;99273.50;5084597;28;20205;-72
2023/07/11 08:48:19;;;;;;;7.78;4.95;;;;;;;32.25;49.73;99267.78;5066787;28;20272;-72
2023/07/11 08:51:02;;;;;;;6.90;4.40;;;;;;;32.39;46.97;99262.91;5072018;28;20239;-73
2023/07/11 08:53:33;;;;;;;7.65;4.78;;;;;;;32.55;49.14;99263.91;5064268;28;20631;-72
2023/07/11 08:56:08;;;;;;;7.60;4.85;;;;;;;32.68;47.29;99266.13;5064627;28;20195;-72
2023/07/11 08:58:37;;;;;;;9.38;5.38;;;;;;;32.67;46.59;99261.91;5064348;28;20282;-72
2023/07/11 09:01:17;;;;;;;10.27;5.32;;;;;;;32.66;50.43;99272.72;5061554;28;20280;-73
2023/07/11 09:03:49;;;;;;;10.75;5.55;;;;;;;32.84;47.61;99263.59;5060836;28;20210;-72
2023/07/11 09:06:20;;;;;;;8.68;5.28;;;;;;;33.02;45.80;99271.22;5060738;28;20207;-73
2023/07/11 09:08:48;;;;;;;8.10;4.85;;;;;;;33.04;45.18;99263.00;5063479;28;20206;-72
2023/07/11 09:11:23;;;;;;;9.93;5.15;;;;;;;33.16;47.73;99260.16;5063625;28;20774;-72
2023/07/11 09:14:00;;;;;;;9.93;4.75;;;;;;;33.24;45.30;99257.84;5063133;28;20199;-72
2023/07/11 09:16:36;;;;;;;8.73;5.20;;;;;;;33.35;44.33;99254.19;5060497;28;20195;-72
2023/07/11 09:19:32;;;;;;;7.97;4.90;;;;;;;33.54;47.96;99245.84;5055573;28;20215;-72
2023/07/11 09:22:11;;;;;;;10.30;4.72;;;;;;;33.81;45.78;99245.72;5048716;28;20211;-72
2023/07/11 09:24:45;;;;;;;7.88;5.10;;;;;;;33.78;45.93;99246.22;5063604;28;20245;-72
2023/07/11 09:27:22;;;;;;;8.52;5.25;;;;;;;33.99;48.27;99237.28;5063628;28;20205;-72
2023/07/11 09:29:50;;;;;;;8.05;5.20;;;;;;;33.95;46.43;99246.81;5063662;28;20578;-72
2023/07/11 09:32:18;;;;;;;10.55;4.93;;;;;;;33.82;44.36;99242.00;5063457;28;20238;-72
2023/07/11 09:34:47;;;;;;;11.68;5.63;;;;;;;33.87;44.37;99244.66;5040968;28;20227;-73
2023/07/11 09:37:26;;;;;;;10.10;5.18;;;;;;;33.97;44.83;99244.69;5048027;28;20227;-72
2023/07/11 09:40:00;;;;;;;13.48;5.30;;;;;;;34.08;44.60;99250.06;5050341;28;20638;-72
2023/07/11 09:42:41;;;;;;;11.38;5.13;;;;;;;34.14;45.76;99247.16;5048833;28;20617;-72
2023/07/11 09:45:11;;;;;;;12.38;5.47;;;;;;;34.34;46.77;99254.38;5050168;28;20204;-72
2023/07/11 09:47:40;;;;;;;11.65;5.45;;;;;;;34.61;44.30;99248.06;5050328;28;20207;-72
2023/07/11 09:50:31;;;;;;;12.98;5.45;;;;;;;34.62;44.35;99241.69;5050289;28;20200;-73
2023/07/11 09:53:00;;;;;;;21.95;5.43;;;;;;;34.72;45.85;99252.31;5049947;28;20719;-73
2023/07/11 09:55:34;;;;;;;10.80;5.32;;;;;;;34.57;44.09;99239.03;5050097;28;20199;-72
2023/07/11 09:58:03;;;;;;;16.75;6.10;;;;;;;34.37;43.56;99250.41;5049981;28;20214;-72
2023/07/11 10:00:30;;;;;;;12.23;5.43;;;;;;;34.42;43.61;99239.78;5049979;28;20195;-72
2023/07/11 10:02:59;;;;;;;13.75;5.72;;;;;;;34.67;48.50;99247.00;5048715;28;20203;-73
2023/07/11 10:05:26;;;;;;;14.57;5.80;;;;;;;34.78;45.55;99243.28;5049269;28;20208;-72
2023/07/11 10:08:01;;;;;;;11.73;5.18;;;;;;;35.03;42.63;99252.31;5049317;28;20200;-73
2023/07/11 10:10:27;;;;;;;14.20;5.38;;;;;;;34.77;44.57;99236.38;5049088;28;20199;-72
2023/07/11 10:12:54;;;;;;;11.93;5.18;;;;;;;35.23;47.18;99248.81;5049077;28;20234;-72
2023/07/11 10:15:27;;;;;;;14.57;5.95;;;;;;;35.30;43.23;99239.50;5047635;28;20203;-73
2023/07/11 10:17:56;;;;;;;18.83;6.05;;;;;;;35.29;44.87;99237.16;5048011;28;20747;-72
2023/07/11 10:20:25;;;;;;;19.73;6.32;;;;;;;35.48;44.13;99234.69;5048564;28;20255;-72
2023/07/11 10:22:53;;;;;;;20.00;7.05;;;;;;;35.59;44.26;99237.06;5045185;28;20218;-73
2023/07/11 10:25:21;;;;;;;20.33;6.50;;;;;;;35.82;43.32;99230.31;5036344;28;20215;-72
2023/07/11 10:27:53;;;;;;;15.93;5.90;;;;;;;36.02;43.40;99229.41;5033605;28;20200;-72
2023/07/11 10:30:25;;;;;;;14.02;5.20;;;;;;;35.77;42.98;99225.00;5043421;28;20282;-72
2023/07/11 10:32:58;;;;;;;14.30;5.25;;;;;;;35.74;42.50;99230.88;5035239;28;20232;-72
2023/07/11 10:35:26;;;;;;;14.85;5.65;;;;;;;35.70;41.37;99227.19;5036226;28;20231;-72
2023/07/11 10:37:56;;;;;;;14.13;5.18;;;;;;;35.33;40.22;99220.38;5040644;28;20663;-72
2023/07/11 10:40:27;;;;;;;13.38;5.53;;;;;;;35.14;41.24;99230.78;5031928;28;20208;-73
2023/07/11 10:43:03;;;;;;;14.63;5.13;;;;;;;35.22;43.67;99223.31;5037182;28;20676;-72
2023/07/11 10:45:36;;;;;;;20.60;6.55;;;;;;;35.32;43.81;99210.81;5043123;28;20206;-73
2023/07/11 10:48:11;;;;;;;13.25;5.30;;;;;;;35.25;42.34;99212.94;5042256;28;20207;-72
2023/07/11 10:50:45;;;;;;;15.57;5.45;;;;;;;35.43;43.68;99214.22;5044105;28;20206;-72
2023/07/11 10:53:20;;;;;;;13.23;5.43;;;;;;;35.64;44.93;99212.31;5043695;28;20231;-73
2023/07/11 10:55:58;;;;;;;15.65;5.80;;;;;;;35.49;40.97;99207.00;5042108;28;20211;-73
2023/07/11 10:58:25;;;;;;;13.50;5.55;;;;;;;35.22;40.69;99210.81;5043099;28;20200;-73
2023/07/11 11:01:02;;;;;;;10.50;4.80;;;;;;;35.32;40.90;99205.50;5043350;28;20626;-72
2023/07/11 11:03:39;;;;;;;19.65;6.38;;;;;;;35.38;42.08;99201.75;5042235;28;20222;-73
2023/07/11 11:06:27;;;;;;;14.43;5.57;;;;;;;35.47;43.31;99201.19;5042271;28;20219;-72
2023/07/11 11:09:07;;;;;;;7.68;4.82;;;;;;;35.59;40.78;99194.50;5043531;28;20246;-72
2023/07/11 11:11:45;;;;;;;16.83;6.20;;;;;;;35.67;41.93;99190.50;5041794;28;20711;-73
2023/07/11 11:14:15;;;;;;;14.50;5.57;;;;;;;35.77;41.53;99179.78;5041867;28;20212;-72
2023/07/11 11:16:59;;;;;;;11.10;5.03;;;;;;;35.81;42.08;99180.84;5037676;28;20614;-73
2023/07/11 11:19:40;;;;;;;11.48;5.20;;;;;;;35.70;40.25;99173.97;5028116;28;20291;-72
2023/07/11 11:22:15;;;;;;;12.88;5.22;;;;;;;35.79;41.48;99175.00;5032571;28;20219;-72
2023/07/11 11:24:52;;;;;;;14.40;5.60;;;;;;;35.75;43.33;99168.63;5047295;28;20793;-72
2023/07/11 11:27:32;;;;;;;14.05;5.43;;;;;;;35.64;42.04;99169.75;5048140;28;20203;-73
2023/07/11 11:30:16;;;;;;;11.55;5.07;;;;;;;35.89;45.16;99170.66;5048457;28;20226;-72
2023/07/11 11:32:52;;;;;;;6.45;4.80;;;;;;;35.67;39.54;99157.78;5047895;28;20223;-72
2023/07/11 11:35:32;;;;;;;7.32;4.85;;;;;;;35.69;44.40;99156.41;5048045;28;20237;-73
2023/07/11 11:38:18;;;;;;;7.43;4.72;;;;;;;35.90;41.39;99154.44;5048096;28;20195;-72
2023/07/11 11:40:50;;;;;;;8.27;4.70;;;;;;;35.92;41.38;99151.50;5045218;28;20253;-72
2023/07/11 11:43:19;;;;;;;7.45;4.72;;;;;;;35.78;40.68;99157.44;5046265;28;20246;-73
2023/07/11 11:45:48;;;;;;;6.85;4.78;;;;;;;35.85;43.38;99159.00;5047909;28;20306;-73
2023/07/11 11:48:20;;;;;;;6.47;4.50;;;;;;;35.69;40.96;99151.09;5047128;28;20200;-73
2023/07/11 11:50:49;;;;;;;7.70;4.55;;;;;;;35.44;41.20;99156.53;5044741;28;20219;-73
2023/07/11 11:53:22;;;;;;;7.60;4.55;;;;;;;35.43;41.12;99146.94;5047419;28;20608;-73
2023/07/11 11:55:55;;;;;;;7.30;4.22;;;;;;;35.64;41.70;99145.81;5047392;28;20204;-72
2023/07/11 11:58:23;;;;;;;8.48;3.88;;;;;;;35.42;40.29;99135.50;5047549;28;20207;-72
2023/07/11 12:00:51;;;;;;;7.82;4.63;;;;;;;35.20;39.66;99135.88;5047349;28;20210;-72
2023/07/11 12:03:25;;;;;;;9.15;4.80;;;;;;;35.12;40.24;99136.44;5046383;28;20212;-73
2023/07/11 12:05:53;;;;;;;7.47;4.70;;;;;;;35.33;40.18;99131.84;5047343;28;20204;-72
2023/07/11 12:08:33;;;;;;;8.00;4.63;;;;;;;35.45;41.32;99128.84;5044833;28;20202;-72
2023/07/11 12:11:19;;;;;;;6.43;4.25;;;;;;;35.46;42.38;99119.81;5047459;28;20221;-71
2023/07/11 12:14:02;;;;;;;9.85;4.63;;;;;;;35.72;42.43;99097.38;5046892;28;20334;-72
2023/07/11 12:16:32;;;;;;;9.00;4.53;;;;;;;35.37;37.79;99115.06;5045967;28;20214;-73
2023/07/11 12:19:02;;;;;;;8.50;4.35;;;;;;;35.44;40.02;99106.00;5047475;28;20477;-71
2023/07/11 12:21:40;;;;;;;9.13;4.45;;;;;;;35.47;40.02;99100.13;5047258;28;20207;-72
2023/07/11 12:24:26;;;;;;;7.60;4.50;;;;;;;35.45;38.71;99092.41;5046259;28;20695;-72
2023/07/11 12:26:53;;;;;;;8.65;4.28;;;;;;;35.51;38.74;99093.19;5047452;28;20210;-71
2023/07/11 12:29:38;;;;;;;7.10;4.00;;;;;;;35.39;38.37;99098.84;5047116;28;20218;-72
2023/07/11 12:32:51;;;;;;;8.43;4.38;;;;;;;35.36;37.07;99089.53;5047063;28;20191;-71
2023/07/11 12:35:21;;;;;;;8.43;4.50;;;;;;;35.23;35.31;99095.47;5010578;28;20261;-71
2023/07/11 12:38:00;;;;;;;7.95;4.40;;;;;;;35.01;37.00;99087.03;5046694;28;20588;-72
2023/07/11 12:40:36;;;;;;;9.05;4.25;;;;;;;35.16;37.37;99084.31;5044787;28;20194;-71
2023/07/11 12:43:04;;;;;;;7.70;4.20;;;;;;;35.22;38.03;99083.22;5044110;28;20722;-72
2023/07/11 12:45:36;;;;;;;11.43;4.50;;;;;;;35.12;36.01;99089.41;5045410;28;20203;-71